createdAt,value
2023-02-27T00:02:01.729Z,100823.09
2023-02-27T00:04:28.621Z,100816.06
2023-02-27T00:06:55.548Z,100825.44
2023-02-27T00:09:22.373Z,100830.50
2023-02-27T00:11:49.186Z,100822.41
2023-02-27T00:14:15.978Z,100820.72
2023-02-27T00:16:42.804Z,100819.78
2023-02-27T00:19:09.640Z,100823.88
2023-02-27T00:21:36.992Z,100823.97
2023-02-27T00:24:04.347Z,100824.75
2023-02-27T00:26:31.313Z,100811.00
2023-02-27T00:28:58.084Z,100807.56
2023-02-27T00:31:25.495Z,100808.38
2023-02-27T00:33:52.489Z,100827.25
2023-02-27T00:36:19.439Z,100836.63
2023-02-27T00:38:46.340Z,100847.78
2023-02-27T00:41:13.144Z,100851.97
2023-02-27T00:43:40.235Z,100851.91
2023-02-27T00:46:07.066Z,100835.47
2023-02-27T00:48:33.953Z,100850.81
2023-02-27T00:51:01.667Z,100860.09
2023-02-27T00:53:28.817Z,100854.91
2023-02-27T00:55:55.643Z,100849.78
2023-02-27T00:58:22.415Z,100850.66
2023-02-27T01:00:49.437Z,100853.28
2023-02-27T01:03:16.235Z,100849.84
2023-02-27T01:05:43.088Z,100848.28
2023-02-27T01:08:09.892Z,100847.31
2023-02-27T01:10:36.919Z,100851.69
2023-02-27T01:13:06.527Z,100847.31
2023-02-27T01:15:34.041Z,100854.97
2023-02-27T01:18:00.922Z,100856.00
2023-02-27T01:20:28.617Z,100860.31
2023-02-27T01:22:55.432Z,100858.78
2023-02-27T01:25:22.355Z,100856.34
2023-02-27T01:27:50.293Z,100861.47
2023-02-27T01:30:17.353Z,100855.41
2023-02-27T01:32:44.661Z,100861.41
2023-02-27T01:35:11.787Z,100861.28
2023-02-27T01:37:39.022Z,100858.78
2023-02-27T01:40:07.341Z,100866.47
2023-02-27T01:42:34.203Z,100863.75
2023-02-27T01:45:29.975Z,100871.31
2023-02-27T01:48:08.879Z,100873.06
2023-02-27T01:50:38.448Z,100879.06
2023-02-27T01:53:06.377Z,100886.75
2023-02-27T01:55:38.035Z,100882.56
2023-02-27T01:58:08.428Z,100890.56
2023-02-27T02:00:36.148Z,100883.75
2023-02-27T02:03:33.411Z,100889.63
2023-02-27T02:06:02.580Z,100895.44
2023-02-27T02:08:30.972Z,100895.22
2023-02-27T02:10:58.646Z,100901.22
2023-02-27T02:13:25.964Z,100899.47
2023-02-27T02:16:22.047Z,100901.81
2023-02-27T02:19:29.749Z,100893.19
2023-02-27T02:22:36.370Z,100897.34
2023-02-27T02:25:41.122Z,100891.28
2023-02-27T02:28:48.007Z,100894.66
2023-02-27T02:31:48.533Z,100896.41
2023-02-27T02:34:41.675Z,100896.41
2023-02-27T02:37:48.459Z,100897.22
2023-02-27T02:40:36.562Z,100894.72
2023-02-27T02:43:19.486Z,100900.72
2023-02-27T02:45:54.898Z,100910.09
2023-02-27T02:48:31.744Z,100910.09
2023-02-27T02:51:28.320Z,100913.44
2023-02-27T02:54:20.177Z,100911.84
2023-02-27T02:56:52.640Z,100909.22
2023-02-27T02:59:33.384Z,100912.56
2023-02-27T03:02:04.067Z,100905.78
2023-02-27T03:04:56.319Z,100912.66
2023-02-27T03:07:31.845Z,100915.19
2023-02-27T03:10:20.103Z,100916.88
2023-02-27T03:12:51.771Z,100911.78
2023-02-27T03:15:23.074Z,100913.34
2023-02-27T03:17:59.540Z,100907.13
2023-02-27T03:20:31.746Z,100920.91
2023-02-27T03:23:02.209Z,100927.84
2023-02-27T03:25:29.766Z,100927.06
2023-02-27T03:28:01.135Z,100932.91
2023-02-27T03:30:37.036Z,100945.84
2023-02-27T03:33:18.917Z,100938.97
2023-02-27T03:36:27.606Z,100943.38
2023-02-27T03:39:01.235Z,100941.69
2023-02-27T03:41:32.292Z,100943.38
2023-02-27T03:44:29.910Z,100957.91
2023-02-27T03:46:56.949Z,100949.34
2023-02-27T03:49:24.094Z,100951.84
2023-02-27T03:51:51.237Z,100946.72
2023-02-27T03:54:27.382Z,100950.97
2023-02-27T03:57:08.052Z,100956.22
2023-02-27T03:59:37.169Z,100957.28
2023-02-27T04:02:04.460Z,100964.19
2023-02-27T04:04:33.277Z,100967.72
2023-02-27T04:07:38.010Z,100969.25
2023-02-27T04:10:32.894Z,100979.28
2023-02-27T04:13:26.766Z,100974.38
2023-02-27T04:16:33.512Z,100972.63
2023-02-27T04:19:25.350Z,100967.50
2023-02-27T04:22:19.136Z,100971.16
2023-02-27T04:24:59.028Z,100977.31
2023-02-27T04:27:59.296Z,100969.69
2023-02-27T04:30:32.751Z,100984.41
2023-02-27T04:33:25.762Z,100993.78
2023-02-27T04:36:06.084Z,100986.81
2023-02-27T04:38:40.795Z,100988.66
2023-02-27T04:41:12.518Z,100994.72
2023-02-27T04:43:41.275Z,100998.91
2023-02-27T04:46:11.158Z,100993.09
2023-02-27T04:48:44.177Z,100990.47
2023-02-27T04:51:14.760Z,100997.44
2023-02-27T04:54:04.167Z,100998.97
2023-02-27T04:56:34.480Z,101003.22
2023-02-27T04:59:15.185Z,101005.72
2023-02-27T05:01:45.737Z,101003.88
2023-02-27T05:04:15.244Z,101003.81
2023-02-27T05:06:43.852Z,101013.19
2023-02-27T05:09:50.638Z,101020.13
2023-02-27T05:12:26.102Z,101021.81
2023-02-27T05:15:00.457Z,101024.44
2023-02-27T05:17:33.497Z,101019.41
2023-02-27T05:20:00.742Z,101022.97
2023-02-27T05:22:46.482Z,101022.09
2023-02-27T05:25:27.306Z,101022.97
2023-02-27T05:28:15.618Z,101024.00
2023-02-27T05:30:51.280Z,101032.50
2023-02-27T05:33:27.928Z,101036.88
2023-02-27T05:36:16.262Z,101029.13
2023-02-27T05:38:49.930Z,101041.19
2023-02-27T05:41:20.881Z,101035.28
2023-02-27T05:43:54.593Z,101046.41
2023-02-27T05:46:37.617Z,101055.84
2023-02-27T05:49:12.079Z,101061.78
2023-02-27T05:51:40.192Z,101074.50
2023-02-27T05:54:11.135Z,101078.31
2023-02-27T05:56:39.014Z,101071.22
2023-02-27T05:59:28.881Z,101076.34
2023-02-27T06:01:55.932Z,101073.03
2023-02-27T06:04:23.001Z,101082.88
2023-02-27T06:06:49.917Z,101083.16
2023-02-27T06:09:16.810Z,101083.38
2023-02-27T06:11:43.704Z,101084.25
2023-02-27T06:16:39.256Z,101091.06
2023-02-27T06:19:06.492Z,101098.81
2023-02-27T06:21:33.406Z,101092.88
2023-02-27T06:24:00.332Z,101093.75
2023-02-27T06:26:27.610Z,101098.81
2023-02-27T06:28:54.758Z,101093.69
2023-02-27T06:31:21.841Z,101099.53
2023-02-27T06:33:48.816Z,101096.34
2023-02-27T06:36:15.876Z,101098.09
2023-02-27T06:38:42.731Z,101098.25
2023-02-27T06:41:09.638Z,101103.59
2023-02-27T06:43:37.278Z,101106.28
2023-02-27T06:46:04.244Z,101109.72
2023-02-27T06:48:31.326Z,101119.25
2023-02-27T06:50:58.331Z,101121.00
2023-02-27T06:53:25.915Z,101121.97
2023-02-27T06:55:52.890Z,101124.69
2023-02-27T06:58:20.195Z,101128.19
2023-02-27T07:00:47.777Z,101127.31
2023-02-27T07:03:14.946Z,101135.88
2023-02-27T07:05:42.264Z,101137.72
2023-02-27T07:08:10.448Z,101139.72
2023-02-27T07:10:37.546Z,101140.16
2023-02-27T07:13:04.666Z,101144.09
2023-02-27T07:15:31.753Z,101154.78
2023-02-27T07:17:58.766Z,101146.63
2023-02-27T07:20:25.772Z,101143.47
2023-02-27T07:22:52.818Z,101148.66
2023-02-27T07:25:19.733Z,101153.09
2023-02-27T07:27:49.735Z,101161.09
2023-02-27T07:30:18.447Z,101163.63
2023-02-27T07:32:45.868Z,101163.31
2023-02-27T07:35:12.874Z,101167.69
2023-02-27T07:37:39.901Z,101168.78
2023-02-27T07:40:07.742Z,101169.88
2023-02-27T07:42:35.519Z,101174.59
2023-02-27T07:45:02.669Z,101172.72
2023-02-27T07:47:30.494Z,101167.72
2023-02-27T07:49:57.612Z,101172.91
2023-02-27T07:52:24.857Z,101170.03
2023-02-27T07:54:51.925Z,101173.19
2023-02-27T07:57:18.918Z,101175.19
2023-02-27T07:59:45.958Z,101169.06
2023-02-27T08:02:13.132Z,101174.06
2023-02-27T08:04:40.262Z,101179.19
2023-02-27T08:07:07.252Z,101177.25
2023-02-27T08:09:34.273Z,101182.16
2023-02-27T08:12:03.093Z,101180.25
2023-02-27T08:14:30.181Z,101183.78
2023-02-27T08:16:57.262Z,101183.22
2023-02-27T08:19:24.126Z,101187.75
2023-02-27T08:21:51.140Z,101192.19
2023-02-27T08:24:18.572Z,101190.88
2023-02-27T08:26:45.445Z,101188.44
2023-02-27T08:29:12.365Z,101185.44
2023-02-27T08:31:39.268Z,101194.41
2023-02-27T08:34:10.844Z,101207.13
2023-02-27T08:36:38.120Z,101210.06
2023-02-27T08:39:06.030Z,101221.38
2023-02-27T08:41:33.188Z,101209.44
2023-02-27T08:44:00.127Z,101213.19
2023-02-27T08:46:27.651Z,101207.69
2023-02-27T08:48:54.898Z,101218.03
2023-02-27T08:51:22.234Z,101224.13
2023-02-27T08:53:49.237Z,101219.78
2023-02-27T08:56:16.361Z,101221.69
2023-02-27T08:58:43.315Z,101220.72
2023-02-27T09:01:10.311Z,101222.50
2023-02-27T09:03:37.566Z,101228.72
2023-02-27T09:06:05.361Z,101235.22
2023-02-27T09:08:32.420Z,101234.00
2023-02-27T09:11:00.280Z,101229.09
2023-02-27T09:13:27.349Z,101228.16
2023-02-27T09:15:54.881Z,101230.72
2023-02-27T09:18:22.773Z,101233.34
2023-02-27T09:20:53.787Z,101235.28
2023-02-27T09:23:20.919Z,101240.81
2023-02-27T09:25:48.012Z,101245.91
2023-02-27T09:28:15.560Z,101243.47
2023-02-27T09:30:42.815Z,101241.59
2023-02-27T09:33:09.848Z,101244.41
2023-02-27T09:35:37.349Z,101245.56
2023-02-27T09:38:04.456Z,101249.34
2023-02-27T09:40:36.888Z,101256.25
2023-02-27T09:43:15.941Z,101237.47
2023-02-27T09:45:43.304Z,101269.78
2023-02-27T09:48:42.965Z,101266.28
2023-02-27T09:51:10.314Z,101266.78
2023-02-27T09:53:39.926Z,101257.03
2023-02-27T09:56:22.870Z,101279.91
2023-02-27T09:59:22.971Z,101266.75
2023-02-27T10:01:59.520Z,101265.09
2023-02-27T10:05:05.752Z,101274.00
2023-02-27T10:07:42.488Z,101276.22
2023-02-27T10:10:31.840Z,101273.53
2023-02-27T10:13:38.570Z,101275.63
2023-02-27T10:16:06.337Z,101285.41
2023-02-27T10:18:51.624Z,101296.38
2023-02-27T10:21:26.319Z,101288.47
2023-02-27T10:24:33.676Z,101273.72
2023-02-27T10:27:03.032Z,101306.69
2023-02-27T10:29:40.031Z,101299.78
2023-02-27T10:32:14.037Z,101311.53
2023-02-27T10:34:42.593Z,101284.38
2023-02-27T10:37:15.441Z,101296.75
2023-02-27T10:39:54.113Z,101286.88
2023-02-27T10:42:22.435Z,101291.84
2023-02-27T10:44:53.694Z,101268.78
2023-02-27T10:47:23.737Z,101291.69
2023-02-27T10:49:52.610Z,101294.84
2023-02-27T10:52:19.758Z,101298.03
2023-02-27T10:54:47.360Z,101295.63
2023-02-27T10:57:37.587Z,101297.47
2023-02-27T11:00:12.249Z,101292.31
2023-02-27T11:02:41.113Z,101303.72
2023-02-27T11:05:28.999Z,101298.03
2023-02-27T11:07:57.526Z,101269.16
2023-02-27T11:10:27.230Z,101265.19
2023-02-27T11:13:03.749Z,101320.16
2023-02-27T11:15:33.508Z,101321.84
2023-02-27T11:18:22.029Z,101301.31
2023-02-27T11:20:50.966Z,101314.91
2023-02-27T11:23:23.720Z,101306.09
2023-02-27T11:25:51.535Z,101322.84
2023-02-27T11:28:25.835Z,101322.97
2023-02-27T11:31:03.615Z,101328.84
2023-02-27T11:33:35.495Z,101325.34
2023-02-27T11:36:02.501Z,101321.44
2023-02-27T11:38:30.411Z,101307.44
2023-02-27T11:41:00.353Z,101318.75
2023-02-27T11:43:34.573Z,101342.00
2023-02-27T11:46:30.089Z,101328.72
2023-02-27T11:48:56.466Z,101326.94
2023-02-27T11:51:54.691Z,101333.72
2023-02-27T11:54:38.945Z,101335.91
2023-02-27T11:57:24.904Z,101334.59
2023-02-27T11:59:56.243Z,101330.94
2023-02-27T12:02:48.219Z,101326.66
2023-02-27T12:05:21.279Z,101325.59
2023-02-27T12:07:54.852Z,101325.50
2023-02-27T12:10:24.776Z,101335.16
2023-02-27T12:13:13.033Z,101341.69
2023-02-27T12:15:56.753Z,101336.72
2023-02-27T12:18:28.756Z,101341.03
2023-02-27T12:21:00.819Z,101340.66
2023-02-27T12:23:46.690Z,101345.13
2023-02-27T12:26:22.193Z,101355.47
2023-02-27T12:29:18.433Z,101352.13
2023-02-27T12:31:50.814Z,101347.91
2023-02-27T12:34:29.321Z,101358.00
2023-02-27T12:37:11.405Z,101359.75
2023-02-27T12:39:38.527Z,101367.91
2023-02-27T12:42:29.129Z,101356.69
2023-02-27T12:45:24.252Z,101362.66
2023-02-27T12:48:14.008Z,101371.06
2023-02-27T12:51:09.643Z,101368.50
2023-02-27T12:54:12.230Z,101356.44
2023-02-27T12:56:59.345Z,101367.25
2023-02-27T12:59:59.265Z,101368.66
2023-02-27T13:02:48.959Z,101367.19
2023-02-27T13:05:47.109Z,101374.03
2023-02-27T13:08:25.078Z,101371.56
2023-02-27T13:11:18.811Z,101368.78
2023-02-27T13:13:52.632Z,101371.97
2023-02-27T13:16:30.271Z,101377.47
2023-02-27T13:19:06.181Z,101378.06
2023-02-27T13:21:39.861Z,101364.94
2023-02-27T13:24:27.520Z,101377.69
2023-02-27T13:27:01.162Z,101382.94
2023-02-27T13:29:35.799Z,101379.88
2023-02-27T13:32:42.784Z,101380.75
2023-02-27T13:35:37.894Z,101388.75
2023-02-27T13:38:44.980Z,101383.91
2023-02-27T13:41:37.094Z,101383.41
2023-02-27T13:44:24.302Z,101385.00
2023-02-27T13:46:51.592Z,101383.84
2023-02-27T13:49:29.325Z,101371.59
2023-02-27T13:51:59.856Z,101388.28
2023-02-27T13:54:32.856Z,101387.28
2023-02-27T13:57:21.633Z,101387.53
2023-02-27T13:59:58.144Z,101379.44
2023-02-27T14:02:56.546Z,101388.53
2023-02-27T14:05:37.612Z,101383.28
2023-02-27T14:08:25.066Z,101391.13
2023-02-27T14:11:09.343Z,101377.63
2023-02-27T14:13:57.980Z,101394.19
2023-02-27T14:16:52.542Z,101403.84
2023-02-27T14:19:37.759Z,101411.44
2023-02-27T14:22:29.719Z,101413.25
2023-02-27T14:25:02.872Z,101414.31
2023-02-27T14:27:38.572Z,101403.44
2023-02-27T14:30:11.718Z,101400.72
2023-02-27T14:32:39.036Z,101401.53
2023-02-27T14:35:06.635Z,101401.31
2023-02-27T14:37:35.904Z,101403.53
2023-02-27T14:40:06.330Z,101409.34
2023-02-27T14:42:49.308Z,101409.06
2023-02-27T14:45:25.108Z,101406.13
2023-02-27T14:47:52.880Z,101398.22
2023-02-27T14:50:24.595Z,101394.16
2023-02-27T14:52:51.541Z,101404.38
2023-02-27T14:55:29.849Z,101405.19
2023-02-27T14:58:09.218Z,101398.81
2023-02-27T15:00:39.370Z,101406.50
2023-02-27T15:03:28.310Z,101408.34
2023-02-27T15:06:01.098Z,101398.97
2023-02-27T15:08:32.181Z,101406.59
2023-02-27T15:11:00.461Z,101408.34
2023-02-27T15:13:35.509Z,101410.75
2023-02-27T15:16:30.981Z,101411.41
2023-02-27T15:19:20.162Z,101415.53
2023-02-27T15:21:50.226Z,101415.97
2023-02-27T15:24:26.675Z,101421.84
2023-02-27T15:27:02.965Z,101417.69
2023-02-27T15:29:38.896Z,101419.31
2023-02-27T15:32:07.089Z,101425.34
2023-02-27T15:34:35.459Z,101428.63
2023-02-27T15:37:03.204Z,101429.28
2023-02-27T15:39:31.123Z,101423.84
2023-02-27T15:42:05.482Z,101436.03
2023-02-27T15:44:39.919Z,101437.09
2023-02-27T15:47:07.456Z,101434.22
2023-02-27T15:49:34.632Z,101430.94
2023-02-27T15:52:10.549Z,101442.00
2023-02-27T15:54:47.029Z,101438.19
2023-02-27T15:57:14.378Z,101443.38
2023-02-27T15:59:42.700Z,101436.25
2023-02-27T16:02:26.877Z,101450.00
2023-02-27T16:04:53.987Z,101442.88
2023-02-27T16:07:24.928Z,101446.63
2023-02-27T16:09:56.953Z,101442.78
2023-02-27T16:12:37.073Z,101457.09
2023-02-27T16:15:31.903Z,101449.03
2023-02-27T16:18:24.238Z,101451.81
2023-02-27T16:20:55.110Z,101453.78
2023-02-27T16:23:28.634Z,101462.91
2023-02-27T16:26:21.768Z,101473.06
2023-02-27T16:29:15.757Z,101472.13
2023-02-27T16:31:49.389Z,101474.75
2023-02-27T16:34:46.424Z,101475.72
2023-02-27T16:37:21.153Z,101474.84
2023-02-27T16:39:50.448Z,101472.19
2023-02-27T16:42:17.341Z,101474.69
2023-02-27T16:44:44.306Z,101484.56
2023-02-27T16:47:11.445Z,101485.34
2023-02-27T16:49:40.500Z,101482.34
2023-02-27T16:52:11.100Z,101478.81
2023-02-27T16:54:38.478Z,101478.09
2023-02-27T16:57:05.439Z,101491.94
2023-02-27T16:59:37.160Z,101484.50
2023-02-27T17:02:05.864Z,101491.38
2023-02-27T17:04:33.352Z,101487.16
2023-02-27T17:07:01.689Z,101489.25
2023-02-27T17:09:29.448Z,101499.81
2023-02-27T17:11:57.343Z,101492.06
2023-02-27T17:14:25.126Z,101500.75
2023-02-27T17:16:52.139Z,101503.16
2023-02-27T17:19:23.471Z,101509.47
2023-02-27T17:21:53.625Z,101508.88
2023-02-27T17:24:23.076Z,101508.22
2023-02-27T17:26:52.591Z,101507.63
2023-02-27T17:29:24.862Z,101516.47
2023-02-27T17:31:52.154Z,101509.31
2023-02-27T17:34:18.972Z,101509.78
2023-02-27T17:36:45.884Z,101512.91
2023-02-27T17:39:14.882Z,101514.38
2023-02-27T17:41:43.182Z,101516.75
2023-02-27T17:44:12.050Z,101523.41
2023-02-27T17:46:39.893Z,101518.44
2023-02-27T17:49:07.245Z,101528.50
2023-02-27T17:51:34.381Z,101533.53
2023-02-27T17:54:02.599Z,101541.00
2023-02-27T17:56:30.020Z,101545.41
2023-02-27T17:58:57.780Z,101548.03
2023-02-27T18:01:26.221Z,101546.50
2023-02-27T18:03:54.847Z,101548.44
2023-02-27T18:06:22.783Z,101556.22
2023-02-27T18:08:49.748Z,101545.72
2023-02-27T18:11:18.826Z,101546.28
2023-02-27T18:13:46.669Z,101556.31
2023-02-27T18:16:13.923Z,101556.56
2023-02-27T18:18:42.429Z,101556.06
2023-02-27T18:21:20.814Z,101556.03
2023-02-27T18:23:48.338Z,101560.81
2023-02-27T18:26:30.143Z,101554.22
2023-02-27T18:29:05.933Z,101567.41
2023-02-27T18:31:38.514Z,101561.16
2023-02-27T18:34:06.304Z,101568.94
2023-02-27T18:36:34.322Z,101576.28
2023-02-27T18:39:01.833Z,101569.88
2023-02-27T18:41:30.074Z,101566.78
2023-02-27T18:43:58.890Z,101577.75
2023-02-27T18:46:26.788Z,101575.56
2023-02-27T18:48:54.121Z,101575.34
2023-02-27T18:51:21.238Z,101577.44
2023-02-27T18:53:49.456Z,101574.69
2023-02-27T18:56:19.184Z,101573.38
2023-02-27T18:58:46.375Z,101574.16
2023-02-27T19:01:34.900Z,101586.66
2023-02-27T19:04:05.943Z,101591.66
2023-02-27T19:06:35.035Z,101587.88
2023-02-27T19:09:05.435Z,101586.13
2023-02-27T19:11:35.875Z,101589.44
2023-02-27T19:14:07.399Z,101589.81
2023-02-27T19:16:36.151Z,101583.59
2023-02-27T19:19:05.038Z,101590.56
2023-02-27T19:21:32.975Z,101596.97
2023-02-27T19:24:00.896Z,101589.69
2023-02-27T19:26:28.686Z,101594.22
2023-02-27T19:28:56.091Z,101605.06
2023-02-27T19:31:24.299Z,101596.19
2023-02-27T19:33:52.631Z,101599.94
2023-02-27T19:36:21.208Z,101600.81
2023-02-27T19:38:48.802Z,101601.91
2023-02-27T19:41:19.796Z,101611.41
2023-02-27T19:43:47.839Z,101604.41
2023-02-27T19:46:18.021Z,101603.63
2023-02-27T19:48:45.560Z,101611.84
2023-02-27T19:51:14.223Z,101606.50
2023-02-27T19:53:42.605Z,101614.66
2023-02-27T19:56:12.983Z,101613.22
2023-02-27T19:58:40.173Z,101611.88
2023-02-27T20:01:07.169Z,101621.31
2023-02-27T20:03:35.469Z,101633.56
2023-02-27T20:06:06.458Z,101626.25
2023-02-27T20:08:34.215Z,101622.31
2023-02-27T20:11:04.591Z,101622.22
2023-02-27T20:13:31.813Z,101624.34
2023-02-27T20:16:00.640Z,101631.19
2023-02-27T20:18:29.955Z,101633.22
2023-02-27T20:21:11.961Z,101633.22
2023-02-27T20:23:41.054Z,101627.25
2023-02-27T20:26:18.389Z,101636.41
2023-02-27T20:28:46.630Z,101630.97
2023-02-27T20:31:15.139Z,101635.44
2023-02-27T20:33:42.825Z,101645.78
2023-02-27T20:36:11.153Z,101641.75
2023-02-27T20:38:39.276Z,101648.13
2023-02-27T20:41:11.826Z,101647.53
2023-02-27T20:43:39.059Z,101653.38
2023-02-27T20:46:08.595Z,101653.38
2023-02-27T20:48:37.428Z,101657.56
2023-02-27T20:51:14.358Z,101655.91
2023-02-27T20:53:48.621Z,101648.16
2023-02-27T20:56:23.207Z,101663.06
2023-02-27T20:58:52.838Z,101666.88
2023-02-27T21:01:22.085Z,101661.16
2023-02-27T21:03:52.931Z,101654.84
2023-02-27T21:06:20.990Z,101667.53
2023-02-27T21:08:52.619Z,101658.06
2023-02-27T21:11:27.490Z,101665.53
2023-02-27T21:14:08.868Z,101658.56
2023-02-27T21:16:38.025Z,101666.97
2023-02-27T21:19:04.882Z,101660.13
2023-02-27T21:21:33.794Z,101667.47
2023-02-27T21:24:01.327Z,101665.31
2023-02-27T21:26:31.904Z,101668.63
2023-02-27T21:29:03.219Z,101663.06
2023-02-27T21:31:33.050Z,101669.53
2023-02-27T21:34:02.888Z,101662.41
2023-02-27T21:36:32.157Z,101655.56
2023-02-27T21:39:01.157Z,101663.19
2023-02-27T21:41:29.294Z,101662.19
2023-02-27T21:44:00.586Z,101659.28
2023-02-27T21:46:28.233Z,101665.75
2023-02-27T21:48:55.260Z,101671.69
2023-02-27T21:51:38.289Z,101675.34
2023-02-27T21:54:06.016Z,101674.69
2023-02-27T21:56:32.979Z,101669.38
2023-02-27T21:59:01.892Z,101670.34
2023-02-27T22:01:29.797Z,101675.53
2023-02-27T22:03:57.379Z,101677.56
2023-02-27T22:06:26.032Z,101671.22
2023-02-27T22:08:57.524Z,101668.41
2023-02-27T22:11:24.766Z,101670.31
2023-02-27T22:13:51.730Z,101667.91
2023-02-27T22:16:19.333Z,101666.38
2023-02-27T22:18:47.097Z,101663.25
2023-02-27T22:21:17.280Z,101656.53
2023-02-27T22:23:45.260Z,101655.78
2023-02-27T22:26:19.050Z,101651.47
2023-02-27T22:28:46.173Z,101652.34
2023-02-27T22:31:16.506Z,101656.25
2023-02-27T22:33:45.095Z,101656.75
2023-02-27T22:36:14.822Z,101650.53
2023-02-27T22:38:42.914Z,101645.72
2023-02-27T22:41:12.173Z,101647.13
2023-02-27T22:43:39.905Z,101644.44
2023-02-27T22:46:08.274Z,101644.97
2023-02-27T22:48:35.964Z,101648.59
2023-02-27T22:51:09.034Z,101651.63
2023-02-27T22:53:40.036Z,101646.28
2023-02-27T22:56:08.999Z,101650.06
2023-02-27T22:58:37.879Z,101656.78
2023-02-27T23:01:19.167Z,101650.53
2023-02-27T23:03:47.505Z,101659.06
2023-02-27T23:06:17.236Z,101659.44
2023-02-27T23:08:45.071Z,101662.38
2023-02-27T23:11:14.057Z,101660.59
2023-02-27T23:13:41.471Z,101652.41
2023-02-27T23:16:13.655Z,101646.69
2023-02-27T23:18:42.992Z,101651.13
2023-02-27T23:21:10.239Z,101659.63
2023-02-27T23:23:37.507Z,101653.66
2023-02-27T23:26:06.090Z,101650.47
2023-02-27T23:28:34.440Z,101657.25
2023-02-27T23:31:01.904Z,101651.53
2023-02-27T23:33:30.355Z,101656.47
2023-02-27T23:35:58.006Z,101651.91
2023-02-27T23:38:25.875Z,101644.66
2023-02-27T23:40:53.028Z,101651.38
2023-02-27T23:43:20.330Z,101650.59
2023-02-27T23:45:47.202Z,101658.19
2023-02-27T23:48:14.123Z,101659.63
2023-02-27T23:50:43.938Z,101656.72
2023-02-27T23:53:12.259Z,101657.00
2023-02-27T23:55:39.314Z,101656.47
2023-02-27T23:58:08.342Z,101658.59
